sensor_id;sensor_type;location;lat;lon;timestamp;P1;durP1;ratioP1;P2;durP2;ratioP2
1987;SDS011;12775;46.994;15.498;2023-02-01T00:02:18;20.44;;;11.52;;
1987;SDS011;12775;46.994;15.498;2023-02-01T00:04:45;15.18;;;9.02;;
1987;SDS011;12775;46.994;15.498;2023-02-01T00:07:12;16.66;;;10.48;;
1987;SDS011;12775;46.994;15.498;2023-02-01T00:09:40;17.16;;;10.10;;
1987;SDS011;12775;46.994;15.498;2023-02-01T00:12:07;17.74;;;10.94;;
1987;SDS011;12775;46.994;15.498;2023-02-01T00:14:35;19.78;;;10.20;;
1987;SDS011;12775;46.994;15.498;2023-02-01T00:17:02;15.12;;;8.52;;
1987;SDS011;12775;46.994;15.498;2023-02-01T00:19:29;21.24;;;9.50;;
1987;SDS011;12775;46.994;15.498;2023-02-01T00:21:57;13.88;;;9.82;;
1987;SDS011;12775;46.994;15.498;2023-02-01T00:24:24;22.00;;;14.16;;
1987;SDS011;12775;46.994;15.498;2023-02-01T00:26:51;13.28;;;10.32;;
1987;SDS011;12775;46.994;15.498;2023-02-01T00:29:19;20.54;;;13.34;;
1987;SDS011;12775;46.994;15.498;2023-02-01T00:31:45;15.72;;;10.20;;
1987;SDS011;12775;46.994;15.498;2023-02-01T00:34:14;13.68;;;8.74;;
1987;SDS011;12775;46.994;15.498;2023-02-01T00:36:40;19.34;;;11.14;;
1987;SDS011;12775;46.994;15.498;2023-02-01T00:39:07;21.12;;;13.70;;
1987;SDS011;12775;46.994;15.498;2023-02-01T00:41:34;19.64;;;11.86;;
1987;SDS011;12775;46.994;15.498;2023-02-01T00:44:01;18.08;;;9.80;;
1987;SDS011;12775;46.994;15.498;2023-02-01T00:46:29;14.66;;;9.40;;
1987;SDS011;12775;46.994;15.498;2023-02-01T00:48:56;18.04;;;9.70;;
1987;SDS011;12775;46.994;15.498;2023-02-01T00:51:25;13.06;;;7.86;;
1987;SDS011;12775;46.994;15.498;2023-02-01T00:53:51;17.96;;;11.82;;
1987;SDS011;12775;46.994;15.498;2023-02-01T00:56:20;14.08;;;9.12;;
1987;SDS011;12775;46.994;15.498;2023-02-01T00:58:48;15.00;;;9.16;;
1987;SDS011;12775;46.994;15.498;2023-02-01T01:01:17;13.28;;;8.68;;
1987;SDS011;12775;46.994;15.498;2023-02-01T01:03:44;14.52;;;9.08;;
1987;SDS011;12775;46.994;15.498;2023-02-01T01:06:11;12.66;;;8.70;;
1987;SDS011;12775;46.994;15.498;2023-02-01T01:08:38;10.70;;;7.68;;
1987;SDS011;12775;46.994;15.498;2023-02-01T01:11:09;15.06;;;10.42;;
1987;SDS011;12775;46.994;15.498;2023-02-01T01:13:38;31.22;;;15.98;;
1987;SDS011;12775;46.994;15.498;2023-02-01T01:16:06;16.98;;;10.22;;
1987;SDS011;12775;46.994;15.498;2023-02-01T01:18:33;13.02;;;8.34;;
1987;SDS011;12775;46.994;15.498;2023-02-01T01:21:00;13.54;;;9.68;;
1987;SDS011;12775;46.994;15.498;2023-02-01T01:23:27;20.22;;;13.20;;
1987;SDS011;12775;46.994;15.498;2023-02-01T01:25:55;19.50;;;12.52;;
1987;SDS011;12775;46.994;15.498;2023-02-01T01:28:22;22.90;;;15.62;;
1987;SDS011;12775;46.994;15.498;2023-02-01T01:30:49;33.76;;;17.04;;
1987;SDS011;12775;46.994;15.498;2023-02-01T01:33:17;20.78;;;11.86;;
1987;SDS011;12775;46.994;15.498;2023-02-01T01:35:44;25.72;;;16.24;;
1987;SDS011;12775;46.994;15.498;2023-02-01T01:38:13;22.98;;;14.30;;
1987;SDS011;12775;46.994;15.498;2023-02-01T01:40:40;25.90;;;16.52;;
1987;SDS011;12775;46.994;15.498;2023-02-01T01:43:12;22.06;;;14.40;;
1987;SDS011;12775;46.994;15.498;2023-02-01T01:45:39;16.64;;;11.14;;
1987;SDS011;12775;46.994;15.498;2023-02-01T01:48:09;22.90;;;12.68;;
1987;SDS011;12775;46.994;15.498;2023-02-01T01:50:44;18.16;;;10.88;;
1987;SDS011;12775;46.994;15.498;2023-02-01T01:53:11;18.54;;;10.38;;
1987;SDS011;12775;46.994;15.498;2023-02-01T01:55:38;17.32;;;10.98;;
1987;SDS011;12775;46.994;15.498;2023-02-01T01:58:05;16.98;;;10.64;;
1987;SDS011;12775;46.994;15.498;2023-02-01T02:00:32;16.36;;;11.02;;
1987;SDS011;12775;46.994;15.498;2023-02-01T02:03:00;19.82;;;9.86;;
1987;SDS011;12775;46.994;15.498;2023-02-01T02:05:27;13.74;;;9.96;;
1987;SDS011;12775;46.994;15.498;2023-02-01T02:07:56;15.62;;;10.30;;
1987;SDS011;12775;46.994;15.498;2023-02-01T02:10:21;14.18;;;10.16;;
1987;SDS011;12775;46.994;15.498;2023-02-01T02:12:48;16.38;;;9.42;;
1987;SDS011;12775;46.994;15.498;2023-02-01T02:15:14;18.14;;;11.84;;
1987;SDS011;12775;46.994;15.498;2023-02-01T02:23:40;13.96;;;9.34;;
1987;SDS011;12775;46.994;15.498;2023-02-01T02:26:24;14.72;;;9.12;;
1987;SDS011;12775;46.994;15.498;2023-02-01T02:28:58;16.18;;;11.66;;
1987;SDS011;12775;46.994;15.498;2023-02-01T02:31:46;18.98;;;11.04;;
1987;SDS011;12775;46.994;15.498;2023-02-01T02:34:17;17.12;;;11.46;;
1987;SDS011;12775;46.994;15.498;2023-02-01T02:36:58;16.64;;;10.22;;
1987;SDS011;12775;46.994;15.498;2023-02-01T02:39:46;17.22;;;9.88;;
1987;SDS011;12775;46.994;15.498;2023-02-01T02:42:29;20.24;;;9.62;;
1987;SDS011;12775;46.994;15.498;2023-02-01T02:45:04;24.04;;;9.94;;
1987;SDS011;12775;46.994;15.498;2023-02-01T02:47:41;14.90;;;9.64;;
1987;SDS011;12775;46.994;15.498;2023-02-01T02:52:46;14.66;;;8.50;;
1987;SDS011;12775;46.994;15.498;2023-02-01T02:55:19;12.70;;;8.56;;
1987;SDS011;12775;46.994;15.498;2023-02-01T02:57:46;14.44;;;8.68;;
1987;SDS011;12775;46.994;15.498;2023-02-01T03:00:21;14.16;;;9.56;;
1987;SDS011;12775;46.994;15.498;2023-02-01T03:02:53;15.56;;;8.94;;
1987;SDS011;12775;46.994;15.498;2023-02-01T03:05:31;11.28;;;7.50;;
1987;SDS011;12775;46.994;15.498;2023-02-01T03:07:57;8.64;;;7.08;;
1987;SDS011;12775;46.994;15.498;2023-02-01T03:10:28;12.52;;;8.30;;
1987;SDS011;12775;46.994;15.498;2023-02-01T03:12:53;15.98;;;9.02;;
1987;SDS011;12775;46.994;15.498;2023-02-01T03:15:24;14.32;;;8.64;;
1987;SDS011;12775;46.994;15.498;2023-02-01T03:17:50;11.54;;;7.44;;
1987;SDS011;12775;46.994;15.498;2023-02-01T03:20:17;7.94;;;6.04;;
1987;SDS011;12775;46.994;15.498;2023-02-01T03:22:43;10.70;;;5.78;;
1987;SDS011;12775;46.994;15.498;2023-02-01T03:25:12;10.74;;;8.32;;
1987;SDS011;12775;46.994;15.498;2023-02-01T03:27:43;19.10;;;7.16;;
1987;SDS011;12775;46.994;15.498;2023-02-01T03:30:17;8.72;;;5.90;;
1987;SDS011;12775;46.994;15.498;2023-02-01T03:32:47;8.06;;;6.58;;
1987;SDS011;12775;46.994;15.498;2023-02-01T03:35:20;11.86;;;6.02;;
1987;SDS011;12775;46.994;15.498;2023-02-01T03:37:47;14.04;;;6.64;;
1987;SDS011;12775;46.994;15.498;2023-02-01T03:40:13;12.02;;;8.68;;
1987;SDS011;12775;46.994;15.498;2023-02-01T03:42:42;13.76;;;8.14;;
1987;SDS011;12775;46.994;15.498;2023-02-01T03:45:10;9.48;;;7.84;;
1987;SDS011;12775;46.994;15.498;2023-02-01T03:47:50;11.96;;;7.14;;
1987;SDS011;12775;46.994;15.498;2023-02-01T03:50:17;10.84;;;7.22;;
1987;SDS011;12775;46.994;15.498;2023-02-01T03:52:45;11.02;;;6.86;;
1987;SDS011;12775;46.994;15.498;2023-02-01T03:55:11;10.04;;;7.66;;
1987;SDS011;12775;46.994;15.498;2023-02-01T03:57:45;9.66;;;6.90;;
1987;SDS011;12775;46.994;15.498;2023-02-01T04:02:43;14.76;;;8.98;;
1987;SDS011;12775;46.994;15.498;2023-02-01T04:05:11;20.40;;;10.52;;
1987;SDS011;12775;46.994;15.498;2023-02-01T04:07:38;19.28;;;13.02;;
1987;SDS011;12775;46.994;15.498;2023-02-01T04:10:06;12.74;;;8.20;;
1987;SDS011;12775;46.994;15.498;2023-02-01T04:12:34;14.00;;;8.46;;
1987;SDS011;12775;46.994;15.498;2023-02-01T04:15:01;10.30;;;7.84;;
1987;SDS011;12775;46.994;15.498;2023-02-01T04:17:29;16.32;;;8.46;;
1987;SDS011;12775;46.994;15.498;2023-02-01T04:19:56;13.14;;;7.52;;
1987;SDS011;12775;46.994;15.498;2023-02-01T04:22:23;13.68;;;9.78;;
1987;SDS011;12775;46.994;15.498;2023-02-01T04:24:51;12.76;;;7.18;;
1987;SDS011;12775;46.994;15.498;2023-02-01T04:27:18;11.36;;;7.76;;
1987;SDS011;12775;46.994;15.498;2023-02-01T04:29:46;9.82;;;8.08;;
1987;SDS011;12775;46.994;15.498;2023-02-01T04:32:13;12.30;;;6.86;;
1987;SDS011;12775;46.994;15.498;2023-02-01T04:34:41;8.82;;;6.54;;
1987;SDS011;12775;46.994;15.498;2023-02-01T04:37:08;11.00;;;6.60;;
1987;SDS011;12775;46.994;15.498;2023-02-01T04:39:36;12.34;;;6.34;;
1987;SDS011;12775;46.994;15.498;2023-02-01T04:42:03;9.66;;;6.58;;
1987;SDS011;12775;46.994;15.498;2023-02-01T04:44:30;7.16;;;5.24;;
1987;SDS011;12775;46.994;15.498;2023-02-01T04:46:58;9.64;;;7.00;;
1987;SDS011;12775;46.994;15.498;2023-02-01T04:49:25;13.58;;;7.98;;
1987;SDS011;12775;46.994;15.498;2023-02-01T04:51:52;10.44;;;7.58;;
1987;SDS011;12775;46.994;15.498;2023-02-01T04:54:20;10.04;;;7.68;;
1987;SDS011;12775;46.994;15.498;2023-02-01T04:56:47;13.12;;;7.82;;
1987;SDS011;12775;46.994;15.498;2023-02-01T04:59:15;13.62;;;7.82;;
1987;SDS011;12775;46.994;15.498;2023-02-01T05:01:42;12.30;;;9.26;;
1987;SDS011;12775;46.994;15.498;2023-02-01T05:04:09;12.40;;;10.08;;
1987;SDS011;12775;46.994;15.498;2023-02-01T05:06:37;13.88;;;8.88;;
1987;SDS011;12775;46.994;15.498;2023-02-01T05:09:04;12.38;;;8.40;;
1987;SDS011;12775;46.994;15.498;2023-02-01T05:11:31;17.76;;;8.70;;
1987;SDS011;12775;46.994;15.498;2023-02-01T05:14:04;12.10;;;7.96;;
1987;SDS011;12775;46.994;15.498;2023-02-01T05:16:32;12.42;;;8.98;;
1987;SDS011;12775;46.994;15.498;2023-02-01T05:18:59;11.64;;;8.20;;
1987;SDS011;12775;46.994;15.498;2023-02-01T05:21:27;12.62;;;7.12;;
1987;SDS011;12775;46.994;15.498;2023-02-01T05:23:54;24.22;;;16.58;;
1987;SDS011;12775;46.994;15.498;2023-02-01T05:26:27;27.64;;;22.98;;
1987;SDS011;12775;46.994;15.498;2023-02-01T05:28:54;23.68;;;18.90;;
1987;SDS011;12775;46.994;15.498;2023-02-01T05:31:22;18.08;;;10.70;;
1987;SDS011;12775;46.994;15.498;2023-02-01T05:33:49;65.72;;;36.30;;
1987;SDS011;12775;46.994;15.498;2023-02-01T05:36:17;35.00;;;23.22;;
1987;SDS011;12775;46.994;15.498;2023-02-01T05:38:45;53.60;;;27.60;;
1987;SDS011;12775;46.994;15.498;2023-02-01T05:41:12;32.82;;;21.54;;
1987;SDS011;12775;46.994;15.498;2023-02-01T05:43:39;27.58;;;16.56;;
1987;SDS011;12775;46.994;15.498;2023-02-01T05:46:07;51.98;;;30.26;;
1987;SDS011;12775;46.994;15.498;2023-02-01T05:48:34;89.08;;;53.24;;
1987;SDS011;12775;46.994;15.498;2023-02-01T05:51:01;45.20;;;25.54;;
1987;SDS011;12775;46.994;15.498;2023-02-01T05:53:29;35.30;;;20.38;;
1987;SDS011;12775;46.994;15.498;2023-02-01T05:55:56;31.78;;;19.30;;
1987;SDS011;12775;46.994;15.498;2023-02-01T05:58:24;45.50;;;23.78;;
1987;SDS011;12775;46.994;15.498;2023-02-01T06:00:51;25.92;;;15.40;;
1987;SDS011;12775;46.994;15.498;2023-02-01T06:03:19;38.92;;;23.66;;
1987;SDS011;12775;46.994;15.498;2023-02-01T06:05:47;45.20;;;29.76;;
1987;SDS011;12775;46.994;15.498;2023-02-01T06:08:14;53.08;;;30.48;;
1987;SDS011;12775;46.994;15.498;2023-02-01T06:10:40;22.24;;;14.66;;
1987;SDS011;12775;46.994;15.498;2023-02-01T06:13:07;103.62;;;55.68;;
1987;SDS011;12775;46.994;15.498;2023-02-01T06:15:34;223.08;;;101.62;;
1987;SDS011;12775;46.994;15.498;2023-02-01T06:18:00;46.64;;;27.72;;
1987;SDS011;12775;46.994;15.498;2023-02-01T06:20:28;38.52;;;22.56;;
1987;SDS011;12775;46.994;15.498;2023-02-01T06:22:55;198.32;;;90.48;;
1987;SDS011;12775;46.994;15.498;2023-02-01T06:25:22;40.32;;;28.94;;
1987;SDS011;12775;46.994;15.498;2023-02-01T06:27:50;28.94;;;22.00;;
1987;SDS011;12775;46.994;15.498;2023-02-01T06:30:17;83.42;;;44.04;;
1987;SDS011;12775;46.994;15.498;2023-02-01T06:32:49;46.24;;;27.34;;
1987;SDS011;12775;46.994;15.498;2023-02-01T06:35:12;35.18;;;18.68;;
1987;SDS011;12775;46.994;15.498;2023-02-01T06:37:39;53.88;;;33.46;;
1987;SDS011;12775;46.994;15.498;2023-02-01T06:40:07;22.90;;;17.34;;
1987;SDS011;12775;46.994;15.498;2023-02-01T06:42:35;25.76;;;19.42;;
1987;SDS011;12775;46.994;15.498;2023-02-01T06:45:02;25.24;;;17.68;;
1987;SDS011;12775;46.994;15.498;2023-02-01T06:47:29;21.86;;;15.28;;
1987;SDS011;12775;46.994;15.498;2023-02-01T06:49:56;29.22;;;21.54;;
1987;SDS011;12775;46.994;15.498;2023-02-01T06:52:23;27.20;;;17.34;;
1987;SDS011;12775;46.994;15.498;2023-02-01T06:54:50;33.42;;;21.42;;
1987;SDS011;12775;46.994;15.498;2023-02-01T06:57:18;37.48;;;25.64;;
1987;SDS011;12775;46.994;15.498;2023-02-01T06:59:45;32.42;;;19.22;;
1987;SDS011;12775;46.994;15.498;2023-02-01T07:02:13;24.12;;;17.12;;
1987;SDS011;12775;46.994;15.498;2023-02-01T07:04:40;102.10;;;49.42;;
1987;SDS011;12775;46.994;15.498;2023-02-01T07:07:06;31.08;;;19.62;;
1987;SDS011;12775;46.994;15.498;2023-02-01T07:09:33;34.78;;;21.32;;
1987;SDS011;12775;46.994;15.498;2023-02-01T07:12:00;27.40;;;16.56;;
1987;SDS011;12775;46.994;15.498;2023-02-01T07:14:28;16.60;;;12.74;;
1987;SDS011;12775;46.994;15.498;2023-02-01T07:16:55;15.54;;;10.80;;
1987;SDS011;12775;46.994;15.498;2023-02-01T07:19:23;18.86;;;14.40;;
1987;SDS011;12775;46.994;15.498;2023-02-01T07:21:50;25.26;;;14.32;;
1987;SDS011;12775;46.994;15.498;2023-02-01T07:24:17;20.44;;;13.68;;
1987;SDS011;12775;46.994;15.498;2023-02-01T07:26:46;24.54;;;13.92;;
1987;SDS011;12775;46.994;15.498;2023-02-01T07:29:13;23.20;;;15.20;;
1987;SDS011;12775;46.994;15.498;2023-02-01T07:31:40;23.52;;;14.82;;
1987;SDS011;12775;46.994;15.498;2023-02-01T07:34:09;22.78;;;14.42;;
1987;SDS011;12775;46.994;15.498;2023-02-01T07:36:36;19.36;;;12.76;;
1987;SDS011;12775;46.994;15.498;2023-02-01T07:39:03;23.78;;;17.20;;
1987;SDS011;12775;46.994;15.498;2023-02-01T07:41:31;19.64;;;15.58;;
1987;SDS011;12775;46.994;15.498;2023-02-01T07:43:59;17.02;;;13.22;;
1987;SDS011;12775;46.994;15.498;2023-02-01T07:46:27;21.80;;;13.64;;
1987;SDS011;12775;46.994;15.498;2023-02-01T07:48:54;24.42;;;14.16;;
1987;SDS011;12775;46.994;15.498;2023-02-01T07:51:23;26.22;;;15.06;;
1987;SDS011;12775;46.994;15.498;2023-02-01T07:53:50;30.66;;;22.96;;
1987;SDS011;12775;46.994;15.498;2023-02-01T07:56:18;27.58;;;15.52;;
1987;SDS011;12775;46.994;15.498;2023-02-01T07:58:48;20.92;;;13.80;;
1987;SDS011;12775;46.994;15.498;2023-02-01T08:01:15;20.72;;;13.04;;
1987;SDS011;12775;46.994;15.498;2023-02-01T08:03:47;23.76;;;14.80;;
1987;SDS011;12775;46.994;15.498;2023-02-01T08:06:13;20.38;;;13.16;;
1987;SDS011;12775;46.994;15.498;2023-02-01T08:08:40;19.32;;;12.92;;
1987;SDS011;12775;46.994;15.498;2023-02-01T08:11:06;24.10;;;16.92;;
1987;SDS011;12775;46.994;15.498;2023-02-01T08:13:34;29.04;;;19.48;;
1987;SDS011;12775;46.994;15.498;2023-02-01T08:16:02;25.92;;;17.94;;
1987;SDS011;12775;46.994;15.498;2023-02-01T08:18:28;23.92;;;16.12;;
1987;SDS011;12775;46.994;15.498;2023-02-01T08:20:56;16.04;;;12.28;;
1987;SDS011;12775;46.994;15.498;2023-02-01T08:23:23;13.34;;;10.54;;
1987;SDS011;12775;46.994;15.498;2023-02-01T08:25:50;11.18;;;9.30;;
1987;SDS011;12775;46.994;15.498;2023-02-01T08:28:18;17.62;;;11.80;;
1987;SDS011;12775;46.994;15.498;2023-02-01T08:30:45;16.12;;;11.32;;
1987;SDS011;12775;46.994;15.498;2023-02-01T08:33:12;15.10;;;10.02;;
1987;SDS011;12775;46.994;15.498;2023-02-01T08:35:39;18.12;;;12.24;;
1987;SDS011;12775;46.994;15.498;2023-02-01T08:38:06;17.34;;;9.60;;
1987;SDS011;12775;46.994;15.498;2023-02-01T08:40:34;11.48;;;8.40;;
1987;SDS011;12775;46.994;15.498;2023-02-01T08:43:01;11.18;;;8.70;;
1987;SDS011;12775;46.994;15.498;2023-02-01T08:45:29;14.84;;;9.30;;
1987;SDS011;12775;46.994;15.498;2023-02-01T08:47:57;14.54;;;9.98;;
1987;SDS011;12775;46.994;15.498;2023-02-01T08:50:24;14.92;;;9.58;;
1987;SDS011;12775;46.994;15.498;2023-02-01T08:52:52;13.04;;;8.90;;
1987;SDS011;12775;46.994;15.498;2023-02-01T08:55:19;13.38;;;8.04;;
1987;SDS011;12775;46.994;15.498;2023-02-01T08:57:46;12.30;;;8.90;;
1987;SDS011;12775;46.994;15.498;2023-02-01T09:00:15;12.84;;;10.66;;
1987;SDS011;12775;46.994;15.498;2023-02-01T09:02:41;12.42;;;9.08;;
1987;SDS011;12775;46.994;15.498;2023-02-01T09:05:08;21.06;;;10.00;;
1987;SDS011;12775;46.994;15.498;2023-02-01T09:07:36;10.24;;;8.42;;
1987;SDS011;12775;46.994;15.498;2023-02-01T09:10:04;13.40;;;9.10;;
1987;SDS011;12775;46.994;15.498;2023-02-01T09:12:32;11.16;;;8.46;;
1987;SDS011;12775;46.994;15.498;2023-02-01T09:14:58;12.18;;;7.64;;
1987;SDS011;12775;46.994;15.498;2023-02-01T09:17:26;13.88;;;7.16;;
1987;SDS011;12775;46.994;15.498;2023-02-01T09:19:53;8.74;;;7.16;;
1987;SDS011;12775;46.994;15.498;2023-02-01T09:22:20;6.64;;;5.96;;
1987;SDS011;12775;46.994;15.498;2023-02-01T09:24:47;12.14;;;7.54;;
1987;SDS011;12775;46.994;15.498;2023-02-01T09:27:15;13.66;;;9.10;;
1987;SDS011;12775;46.994;15.498;2023-02-01T09:29:42;12.66;;;8.98;;
1987;SDS011;12775;46.994;15.498;2023-02-01T09:32:09;21.76;;;12.14;;
1987;SDS011;12775;46.994;15.498;2023-02-01T09:34:37;16.32;;;10.20;;
1987;SDS011;12775;46.994;15.498;2023-02-01T09:37:04;13.10;;;8.08;;
1987;SDS011;12775;46.994;15.498;2023-02-01T09:39:31;12.74;;;9.46;;
1987;SDS011;12775;46.994;15.498;2023-02-01T09:42:08;12.54;;;7.26;;
1987;SDS011;12775;46.994;15.498;2023-02-01T09:44:37;9.02;;;8.12;;
1987;SDS011;12775;46.994;15.498;2023-02-01T09:47:14;10.76;;;6.42;;
1987;SDS011;12775;46.994;15.498;2023-02-01T09:49:48;15.32;;;6.48;;
1987;SDS011;12775;46.994;15.498;2023-02-01T09:52:13;6.10;;;5.10;;
1987;SDS011;12775;46.994;15.498;2023-02-01T09:54:42;7.86;;;6.18;;
1987;SDS011;12775;46.994;15.498;2023-02-01T09:57:13;7.30;;;5.84;;
1987;SDS011;12775;46.994;15.498;2023-02-01T09:59:38;8.14;;;6.76;;
1987;SDS011;12775;46.994;15.498;2023-02-01T10:02:09;7.14;;;6.14;;
1987;SDS011;12775;46.994;15.498;2023-02-01T10:04:32;8.40;;;6.36;;
1987;SDS011;12775;46.994;15.498;2023-02-01T10:09:39;8.60;;;5.98;;
1987;SDS011;12775;46.994;15.498;2023-02-01T10:15:03;9.80;;;6.28;;
1987;SDS011;12775;46.994;15.498;2023-02-01T10:17:55;13.12;;;6.62;;
1987;SDS011;12775;46.994;15.498;2023-02-01T10:20:29;15.28;;;6.72;;
1987;SDS011;12775;46.994;15.498;2023-02-01T10:23:00;10.72;;;6.78;;
1987;SDS011;12775;46.994;15.498;2023-02-01T10:25:30;9.56;;;6.26;;
1987;SDS011;12775;46.994;15.498;2023-02-01T10:27:55;9.32;;;7.06;;
1987;SDS011;12775;46.994;15.498;2023-02-01T10:30:23;8.46;;;5.32;;
1987;SDS011;12775;46.994;15.498;2023-02-01T10:32:52;16.04;;;8.50;;
1987;SDS011;12775;46.994;15.498;2023-02-01T10:35:22;9.82;;;6.68;;
1987;SDS011;12775;46.994;15.498;2023-02-01T10:37:46;9.58;;;7.70;;
1987;SDS011;12775;46.994;15.498;2023-02-01T10:40:17;10.10;;;8.46;;
1987;SDS011;12775;46.994;15.498;2023-02-01T10:42:44;12.48;;;9.12;;
1987;SDS011;12775;46.994;15.498;2023-02-01T10:45:13;11.32;;;8.44;;
1987;SDS011;12775;46.994;15.498;2023-02-01T10:47:40;12.52;;;8.54;;
1987;SDS011;12775;46.994;15.498;2023-02-01T10:50:11;14.44;;;9.14;;
1987;SDS011;12775;46.994;15.498;2023-02-01T10:52:56;11.96;;;8.36;;
1987;SDS011;12775;46.994;15.498;2023-02-01T10:55:26;11.14;;;7.82;;
1987;SDS011;12775;46.994;15.498;2023-02-01T10:57:57;24.84;;;9.44;;
1987;SDS011;12775;46.994;15.498;2023-02-01T11:00:25;8.12;;;7.32;;
1987;SDS011;12775;46.994;15.498;2023-02-01T11:02:53;10.44;;;7.28;;
1987;SDS011;12775;46.994;15.498;2023-02-01T11:05:19;8.22;;;6.60;;
1987;SDS011;12775;46.994;15.498;2023-02-01T11:07:46;9.32;;;6.92;;
1987;SDS011;12775;46.994;15.498;2023-02-01T11:10:46;9.08;;;6.28;;
1987;SDS011;12775;46.994;15.498;2023-02-01T11:13:03;9.42;;;5.82;;
1987;SDS011;12775;46.994;15.498;2023-02-01T11:15:29;8.02;;;6.20;;
1987;SDS011;12775;46.994;15.498;2023-02-01T11:17:56;8.48;;;5.88;;
1987;SDS011;12775;46.994;15.498;2023-02-01T11:20:35;7.40;;;6.28;;
1987;SDS011;12775;46.994;15.498;2023-02-01T11:23:05;9.90;;;5.98;;
1987;SDS011;12775;46.994;15.498;2023-02-01T11:25:32;11.12;;;6.20;;
1987;SDS011;12775;46.994;15.498;2023-02-01T11:27:59;7.96;;;6.72;;
1987;SDS011;12775;46.994;15.498;2023-02-01T11:30:32;7.38;;;5.70;;
1987;SDS011;12775;46.994;15.498;2023-02-01T11:32:58;4.88;;;4.38;;
1987;SDS011;12775;46.994;15.498;2023-02-01T11:35:26;8.70;;;5.34;;
1987;SDS011;12775;46.994;15.498;2023-02-01T11:37:57;6.68;;;4.80;;
1987;SDS011;12775;46.994;15.498;2023-02-01T11:40:25;9.28;;;5.64;;
1987;SDS011;12775;46.994;15.498;2023-02-01T11:42:53;5.36;;;4.84;;
1987;SDS011;12775;46.994;15.498;2023-02-01T11:45:25;4.56;;;4.16;;
1987;SDS011;12775;46.994;15.498;2023-02-01T11:47:51;7.36;;;4.10;;
1987;SDS011;12775;46.994;15.498;2023-02-01T11:50:21;4.84;;;3.52;;
1987;SDS011;12775;46.994;15.498;2023-02-01T11:52:57;5.62;;;4.10;;
1987;SDS011;12775;46.994;15.498;2023-02-01T11:55:32;5.74;;;4.14;;
1987;SDS011;12775;46.994;15.498;2023-02-01T11:59:01;6.70;;;3.72;;
1987;SDS011;12775;46.994;15.498;2023-02-01T12:00:44;4.84;;;3.54;;
1987;SDS011;12775;46.994;15.498;2023-02-01T12:03:39;7.18;;;4.42;;
1987;SDS011;12775;46.994;15.498;2023-02-01T12:11:33;6.96;;;3.64;;
1987;SDS011;12775;46.994;15.498;2023-02-01T12:14:09;6.32;;;4.72;;
1987;SDS011;12775;46.994;15.498;2023-02-01T12:19:28;7.54;;;4.06;;
1987;SDS011;12775;46.994;15.498;2023-02-01T12:22:14;8.60;;;3.22;;
1987;SDS011;12775;46.994;15.498;2023-02-01T12:24:46;4.64;;;2.60;;
1987;SDS011;12775;46.994;15.498;2023-02-01T12:29:53;3.00;;;2.24;;
1987;SDS011;12775;46.994;15.498;2023-02-01T12:32:25;6.70;;;2.40;;
1987;SDS011;12775;46.994;15.498;2023-02-01T12:37:42;8.90;;;2.92;;
1987;SDS011;12775;46.994;15.498;2023-02-01T12:40:27;4.00;;;2.32;;
1987;SDS011;12775;46.994;15.498;2023-02-01T12:45:27;1.96;;;1.00;;
1987;SDS011;12775;46.994;15.498;2023-02-01T12:47:56;6.86;;;1.76;;
1987;SDS011;12775;46.994;15.498;2023-02-01T12:50:24;1.32;;;0.78;;
1987;SDS011;12775;46.994;15.498;2023-02-01T12:52:53;8.40;;;1.06;;
1987;SDS011;12775;46.994;15.498;2023-02-01T12:55:20;7.22;;;1.18;;
1987;SDS011;12775;46.994;15.498;2023-02-01T12:57:49;0.60;;;0.50;;
1987;SDS011;12775;46.994;15.498;2023-02-01T13:00:22;5.74;;;1.06;;
1987;SDS011;12775;46.994;15.498;2023-02-01T13:05:53;11.82;;;2.56;;
1987;SDS011;12775;46.994;15.498;2023-02-01T13:08:25;7.02;;;0.88;;
1987;SDS011;12775;46.994;15.498;2023-02-01T13:11:16;8.14;;;2.10;;
1987;SDS011;12775;46.994;15.498;2023-02-01T13:16:37;1.84;;;0.70;;
1987;SDS011;12775;46.994;15.498;2023-02-01T13:19:05;3.04;;;0.96;;
1987;SDS011;12775;46.994;15.498;2023-02-01T13:21:34;4.68;;;0.72;;
1987;SDS011;12775;46.994;15.498;2023-02-01T13:24:00;10.66;;;2.68;;
1987;SDS011;12775;46.994;15.498;2023-02-01T13:26:27;2.24;;;0.76;;
1987;SDS011;12775;46.994;15.498;2023-02-01T13:28:58;13.58;;;2.50;;
1987;SDS011;12775;46.994;15.498;2023-02-01T13:31:47;0.90;;;0.60;;
1987;SDS011;12775;46.994;15.498;2023-02-01T13:34:37;1.38;;;0.50;;
1987;SDS011;12775;46.994;15.498;2023-02-01T13:37:05;0.70;;;0.50;;
1987;SDS011;12775;46.994;15.498;2023-02-01T13:42:15;2.40;;;0.70;;
1987;SDS011;12775;46.994;15.498;2023-02-01T13:44:45;2.24;;;0.60;;
1987;SDS011;12775;46.994;15.498;2023-02-01T13:47:23;2.42;;;0.60;;
1987;SDS011;12775;46.994;15.498;2023-02-01T13:49:49;1.54;;;0.70;;
1987;SDS011;12775;46.994;15.498;2023-02-01T13:52:38;0.70;;;0.68;;
1987;SDS011;12775;46.994;15.498;2023-02-01T13:55:14;2.02;;;0.90;;
1987;SDS011;12775;46.994;15.498;2023-02-01T13:57:46;0.88;;;0.50;;
1987;SDS011;12775;46.994;15.498;2023-02-01T14:00:30;0.90;;;0.64;;
1987;SDS011;12775;46.994;15.498;2023-02-01T14:05:57;1.54;;;0.70;;
1987;SDS011;12775;46.994;15.498;2023-02-01T14:11:02;0.84;;;0.64;;
1987;SDS011;12775;46.994;15.498;2023-02-01T14:13:31;0.60;;;0.50;;
1987;SDS011;12775;46.994;15.498;2023-02-01T14:21:29;1.04;;;0.50;;
1987;SDS011;12775;46.994;15.498;2023-02-01T14:24:16;0.80;;;0.60;;
1987;SDS011;12775;46.994;15.498;2023-02-01T14:26:46;7.62;;;0.80;;
1987;SDS011;12775;46.994;15.498;2023-02-01T14:29:31;0.76;;;0.66;;
1987;SDS011;12775;46.994;15.498;2023-02-01T14:32:11;0.96;;;0.58;;
1987;SDS011;12775;46.994;15.498;2023-02-01T14:34:50;1.08;;;0.90;;
1987;SDS011;12775;46.994;15.498;2023-02-01T14:37:24;1.32;;;0.70;;
1987;SDS011;12775;46.994;15.498;2023-02-01T14:39:58;9.38;;;4.64;;
1987;SDS011;12775;46.994;15.498;2023-02-01T14:42:25;3.74;;;2.30;;
1987;SDS011;12775;46.994;15.498;2023-02-01T14:44:56;1.16;;;0.98;;
1987;SDS011;12775;46.994;15.498;2023-02-01T14:50:12;0.80;;;0.60;;
1987;SDS011;12775;46.994;15.498;2023-02-01T14:52:43;1.66;;;0.66;;
1987;SDS011;12775;46.994;15.498;2023-02-01T14:55:10;1.22;;;0.86;;
1987;SDS011;12775;46.994;15.498;2023-02-01T14:57:40;3.00;;;0.94;;
1987;SDS011;12775;46.994;15.498;2023-02-01T15:00:17;5.94;;;2.74;;
1987;SDS011;12775;46.994;15.498;2023-02-01T15:02:43;4.52;;;1.02;;
1987;SDS011;12775;46.994;15.498;2023-02-01T15:05:30;17.52;;;2.30;;
1987;SDS011;12775;46.994;15.498;2023-02-01T15:07:58;1.36;;;0.82;;
1987;SDS011;12775;46.994;15.498;2023-02-01T15:10:25;2.72;;;1.10;;
1987;SDS011;12775;46.994;15.498;2023-02-01T15:12:54;2.74;;;1.10;;
1987;SDS011;12775;46.994;15.498;2023-02-01T15:15:22;2.88;;;0.90;;
1987;SDS011;12775;46.994;15.498;2023-02-01T15:17:49;1.70;;;1.02;;
1987;SDS011;12775;46.994;15.498;2023-02-01T15:20:22;1.68;;;0.90;;
1987;SDS011;12775;46.994;15.498;2023-02-01T15:23:00;1.56;;;0.96;;
1987;SDS011;12775;46.994;15.498;2023-02-01T15:25:29;3.48;;;1.22;;
1987;SDS011;12775;46.994;15.498;2023-02-01T15:27:55;9.90;;;1.48;;
1987;SDS011;12775;46.994;15.498;2023-02-01T15:30:25;6.24;;;1.92;;
1987;SDS011;12775;46.994;15.498;2023-02-01T15:32:50;4.76;;;1.58;;
1987;SDS011;12775;46.994;15.498;2023-02-01T15:38:17;6.74;;;1.50;;
1987;SDS011;12775;46.994;15.498;2023-02-01T15:40:38;4.38;;;1.34;;
1987;SDS011;12775;46.994;15.498;2023-02-01T15:43:11;4.44;;;0.90;;
1987;SDS011;12775;46.994;15.498;2023-02-01T15:45:33;1.96;;;1.38;;